sensor_id;sensor_type;location;lat;lon;timestamp;P1;durP1;ratioP1;P2;durP2;ratioP2
47589;SDS011;33316;52.298;9.056;2023-05-10T00:00:48;5.18;;;3.85;;
47589;SDS011;33316;52.298;9.056;2023-05-10T00:03:15;5.97;;;4.63;;
47589;SDS011;33316;52.298;9.056;2023-05-10T00:05:42;4.30;;;3.90;;
47589;SDS011;33316;52.298;9.056;2023-05-10T00:08:10;5.63;;;4.35;;
47589;SDS011;33316;52.298;9.056;2023-05-10T00:10:37;5.72;;;4.43;;
47589;SDS011;33316;52.298;9.056;2023-05-10T00:13:03;5.53;;;4.28;;
47589;SDS011;33316;52.298;9.056;2023-05-10T00:15:30;6.20;;;4.60;;
47589;SDS011;33316;52.298;9.056;2023-05-10T00:17:57;5.88;;;4.78;;
47589;SDS011;33316;52.298;9.056;2023-05-10T00:20:24;5.38;;;4.22;;
47589;SDS011;33316;52.298;9.056;2023-05-10T00:22:50;7.85;;;4.78;;
47589;SDS011;33316;52.298;9.056;2023-05-10T00:25:19;5.68;;;4.72;;
47589;SDS011;33316;52.298;9.056;2023-05-10T00:27:46;5.30;;;4.55;;
47589;SDS011;33316;52.298;9.056;2023-05-10T00:30:13;5.90;;;4.40;;
47589;SDS011;33316;52.298;9.056;2023-05-10T00:32:39;5.68;;;4.63;;
47589;SDS011;33316;52.298;9.056;2023-05-10T00:35:07;7.47;;;4.78;;
47589;SDS011;33316;52.298;9.056;2023-05-10T00:37:34;5.85;;;4.72;;
47589;SDS011;33316;52.298;9.056;2023-05-10T00:40:01;6.22;;;5.35;;
47589;SDS011;33316;52.298;9.056;2023-05-10T00:42:29;6.15;;;5.28;;
47589;SDS011;33316;52.298;9.056;2023-05-10T00:44:56;5.35;;;4.70;;
47589;SDS011;33316;52.298;9.056;2023-05-10T00:47:22;6.43;;;4.88;;
47589;SDS011;33316;52.298;9.056;2023-05-10T00:49:49;6.57;;;4.97;;
47589;SDS011;33316;52.298;9.056;2023-05-10T00:52:16;6.60;;;5.10;;
47589;SDS011;33316;52.298;9.056;2023-05-10T00:54:43;6.45;;;5.32;;
47589;SDS011;33316;52.298;9.056;2023-05-10T00:57:10;6.60;;;5.22;;
47589;SDS011;33316;52.298;9.056;2023-05-10T00:59:38;5.97;;;4.90;;
47589;SDS011;33316;52.298;9.056;2023-05-10T01:02:05;6.55;;;5.50;;
47589;SDS011;33316;52.298;9.056;2023-05-10T01:04:32;7.63;;;5.65;;
47589;SDS011;33316;52.298;9.056;2023-05-10T01:06:59;6.30;;;4.90;;
47589;SDS011;33316;52.298;9.056;2023-05-10T01:09:26;7.07;;;6.18;;
47589;SDS011;33316;52.298;9.056;2023-05-10T01:11:53;6.95;;;5.70;;
47589;SDS011;33316;52.298;9.056;2023-05-10T01:14:20;7.47;;;5.45;;
47589;SDS011;33316;52.298;9.056;2023-05-10T01:16:49;7.53;;;5.70;;
47589;SDS011;33316;52.298;9.056;2023-05-10T01:19:17;6.90;;;5.65;;
47589;SDS011;33316;52.298;9.056;2023-05-10T01:21:49;6.90;;;5.60;;
47589;SDS011;33316;52.298;9.056;2023-05-10T01:27:40;8.88;;;5.95;;
47589;SDS011;33316;52.298;9.056;2023-05-10T01:33:30;7.65;;;5.75;;
47589;SDS011;33316;52.298;9.056;2023-05-10T01:36:02;7.95;;;5.47;;
47589;SDS011;33316;52.298;9.056;2023-05-10T01:38:37;7.10;;;6.30;;
47589;SDS011;33316;52.298;9.056;2023-05-10T01:41:09;6.57;;;5.38;;
47589;SDS011;33316;52.298;9.056;2023-05-10T01:43:42;7.25;;;5.75;;
47589;SDS011;33316;52.298;9.056;2023-05-10T01:46:20;6.35;;;5.32;;
47589;SDS011;33316;52.298;9.056;2023-05-10T01:48:55;6.88;;;5.93;;
47589;SDS011;33316;52.298;9.056;2023-05-10T01:51:25;6.78;;;5.88;;
47589;SDS011;33316;52.298;9.056;2023-05-10T01:53:57;6.80;;;5.20;;
47589;SDS011;33316;52.298;9.056;2023-05-10T01:56:26;6.78;;;5.70;;
47589;SDS011;33316;52.298;9.056;2023-05-10T01:58:56;7.80;;;6.00;;
47589;SDS011;33316;52.298;9.056;2023-05-10T02:01:25;7.10;;;6.03;;
47589;SDS011;33316;52.298;9.056;2023-05-10T02:03:54;6.80;;;5.80;;
47589;SDS011;33316;52.298;9.056;2023-05-10T02:06:23;6.93;;;6.20;;
47589;SDS011;33316;52.298;9.056;2023-05-10T02:08:51;6.20;;;5.32;;
47589;SDS011;33316;52.298;9.056;2023-05-10T02:11:19;7.07;;;5.32;;
47589;SDS011;33316;52.298;9.056;2023-05-10T02:13:48;8.40;;;6.07;;
47589;SDS011;33316;52.298;9.056;2023-05-10T02:16:16;9.27;;;6.78;;
47589;SDS011;33316;52.298;9.056;2023-05-10T02:18:44;8.63;;;7.32;;
47589;SDS011;33316;52.298;9.056;2023-05-10T02:21:13;9.05;;;6.70;;
47589;SDS011;33316;52.298;9.056;2023-05-10T02:23:43;8.93;;;6.65;;
47589;SDS011;33316;52.298;9.056;2023-05-10T02:26:11;8.43;;;6.97;;
47589;SDS011;33316;52.298;9.056;2023-05-10T02:28:38;9.55;;;7.22;;
47589;SDS011;33316;52.298;9.056;2023-05-10T02:31:08;7.50;;;6.32;;
47589;SDS011;33316;52.298;9.056;2023-05-10T02:33:36;8.23;;;7.18;;
47589;SDS011;33316;52.298;9.056;2023-05-10T02:36:04;7.78;;;6.40;;
47589;SDS011;33316;52.298;9.056;2023-05-10T02:38:34;7.13;;;6.22;;
47589;SDS011;33316;52.298;9.056;2023-05-10T02:41:02;8.48;;;6.55;;
47589;SDS011;33316;52.298;9.056;2023-05-10T02:43:32;8.52;;;7.35;;
47589;SDS011;33316;52.298;9.056;2023-05-10T02:45:59;9.93;;;7.43;;
47589;SDS011;33316;52.298;9.056;2023-05-10T02:48:26;8.73;;;7.50;;
47589;SDS011;33316;52.298;9.056;2023-05-10T02:50:54;10.93;;;8.32;;
47589;SDS011;33316;52.298;9.056;2023-05-10T02:53:28;10.18;;;8.35;;
47589;SDS011;33316;52.298;9.056;2023-05-10T02:58:28;9.45;;;6.50;;
47589;SDS011;33316;52.298;9.056;2023-05-10T03:00:55;9.02;;;7.40;;
47589;SDS011;33316;52.298;9.056;2023-05-10T03:03:22;9.00;;;7.60;;
47589;SDS011;33316;52.298;9.056;2023-05-10T03:05:48;10.20;;;8.10;;
47589;SDS011;33316;52.298;9.056;2023-05-10T03:08:15;10.88;;;8.15;;
47589;SDS011;33316;52.298;9.056;2023-05-10T03:10:45;9.77;;;6.97;;
47589;SDS011;33316;52.298;9.056;2023-05-10T03:13:24;9.23;;;8.07;;
47589;SDS011;33316;52.298;9.056;2023-05-10T03:16:02;8.13;;;6.90;;
47589;SDS011;33316;52.298;9.056;2023-05-10T03:18:36;7.40;;;6.20;;
47589;SDS011;33316;52.298;9.056;2023-05-10T03:21:07;8.52;;;6.82;;
47589;SDS011;33316;52.298;9.056;2023-05-10T03:23:39;11.52;;;8.75;;
47589;SDS011;33316;52.298;9.056;2023-05-10T03:26:09;11.25;;;8.38;;
47589;SDS011;33316;52.298;9.056;2023-05-10T03:28:39;8.90;;;7.95;;
47589;SDS011;33316;52.298;9.056;2023-05-10T03:31:07;8.57;;;7.25;;
47589;SDS011;33316;52.298;9.056;2023-05-10T03:33:35;6.80;;;5.80;;
47589;SDS011;33316;52.298;9.056;2023-05-10T03:36:01;8.02;;;6.25;;
47589;SDS011;33316;52.298;9.056;2023-05-10T03:38:28;9.98;;;6.95;;
47589;SDS011;33316;52.298;9.056;2023-05-10T03:40:55;10.75;;;6.30;;
47589;SDS011;33316;52.298;9.056;2023-05-10T03:43:22;7.55;;;6.20;;
47589;SDS011;33316;52.298;9.056;2023-05-10T03:45:50;9.18;;;6.45;;
47589;SDS011;33316;52.298;9.056;2023-05-10T03:48:16;6.93;;;5.70;;
47589;SDS011;33316;52.298;9.056;2023-05-10T03:50:43;5.80;;;4.63;;
47589;SDS011;33316;52.298;9.056;2023-05-10T03:53:09;6.22;;;3.45;;
47589;SDS011;33316;52.298;9.056;2023-05-10T03:55:37;2.95;;;1.77;;
47589;SDS011;33316;52.298;9.056;2023-05-10T03:58:03;2.78;;;1.45;;
47589;SDS011;33316;52.298;9.056;2023-05-10T04:00:30;1.38;;;1.02;;
47589;SDS011;33316;52.298;9.056;2023-05-10T04:02:59;2.22;;;1.08;;
47589;SDS011;33316;52.298;9.056;2023-05-10T04:05:25;2.42;;;1.60;;
47589;SDS011;33316;52.298;9.056;2023-05-10T04:07:52;1.20;;;1.00;;
47589;SDS011;33316;52.298;9.056;2023-05-10T04:10:19;3.70;;;1.20;;
47589;SDS011;33316;52.298;9.056;2023-05-10T04:12:46;1.77;;;1.40;;
47589;SDS011;33316;52.298;9.056;2023-05-10T04:15:12;2.08;;;1.15;;
47589;SDS011;33316;52.298;9.056;2023-05-10T04:17:39;2.05;;;1.15;;
47589;SDS011;33316;52.298;9.056;2023-05-10T04:20:08;3.15;;;1.30;;
47589;SDS011;33316;52.298;9.056;2023-05-10T04:22:35;2.28;;;1.20;;
47589;SDS011;33316;52.298;9.056;2023-05-10T04:25:02;2.13;;;0.93;;
47589;SDS011;33316;52.298;9.056;2023-05-10T04:27:29;0.98;;;0.82;;
47589;SDS011;33316;52.298;9.056;2023-05-10T04:29:56;1.45;;;0.90;;
47589;SDS011;33316;52.298;9.056;2023-05-10T04:32:23;1.60;;;1.10;;
47589;SDS011;33316;52.298;9.056;2023-05-10T04:34:49;1.92;;;1.10;;
47589;SDS011;33316;52.298;9.056;2023-05-10T04:37:18;1.73;;;1.00;;
47589;SDS011;33316;52.298;9.056;2023-05-10T04:39:44;1.15;;;0.90;;
47589;SDS011;33316;52.298;9.056;2023-05-10T04:42:11;0.80;;;0.60;;
47589;SDS011;33316;52.298;9.056;2023-05-10T04:44:39;1.00;;;0.70;;
47589;SDS011;33316;52.298;9.056;2023-05-10T04:47:06;1.17;;;0.80;;
47589;SDS011;33316;52.298;9.056;2023-05-10T04:49:33;1.77;;;0.75;;
47589;SDS011;33316;52.298;9.056;2023-05-10T04:51:59;0.70;;;0.60;;
47589;SDS011;33316;52.298;9.056;2023-05-10T04:54:27;1.10;;;0.80;;
47589;SDS011;33316;52.298;9.056;2023-05-10T04:56:54;0.60;;;0.52;;
47589;SDS011;33316;52.298;9.056;2023-05-10T04:59:21;0.93;;;0.80;;
47589;SDS011;33316;52.298;9.056;2023-05-10T05:01:47;2.30;;;1.10;;
47589;SDS011;33316;52.298;9.056;2023-05-10T05:04:14;1.20;;;0.70;;
47589;SDS011;33316;52.298;9.056;2023-05-10T05:06:41;1.10;;;0.90;;
47589;SDS011;33316;52.298;9.056;2023-05-10T05:09:07;2.65;;;1.08;;
47589;SDS011;33316;52.298;9.056;2023-05-10T05:11:36;1.40;;;1.08;;
47589;SDS011;33316;52.298;9.056;2023-05-10T05:14:03;1.50;;;1.00;;
47589;SDS011;33316;52.298;9.056;2023-05-10T05:16:30;1.38;;;1.02;;
47589;SDS011;33316;52.298;9.056;2023-05-10T05:18:57;1.17;;;1.00;;
47589;SDS011;33316;52.298;9.056;2023-05-10T05:21:23;1.88;;;1.10;;
47589;SDS011;33316;52.298;9.056;2023-05-10T05:23:51;2.08;;;1.40;;
47589;SDS011;33316;52.298;9.056;2023-05-10T05:26:18;1.40;;;1.20;;
47589;SDS011;33316;52.298;9.056;2023-05-10T05:28:46;2.45;;;1.20;;
47589;SDS011;33316;52.298;9.056;2023-05-10T05:31:13;1.60;;;1.33;;
47589;SDS011;33316;52.298;9.056;2023-05-10T05:33:40;1.55;;;1.00;;
47589;SDS011;33316;52.298;9.056;2023-05-10T05:36:07;2.03;;;1.00;;
47589;SDS011;33316;52.298;9.056;2023-05-10T05:38:34;1.70;;;1.38;;
47589;SDS011;33316;52.298;9.056;2023-05-10T05:41:00;1.75;;;1.23;;
47589;SDS011;33316;52.298;9.056;2023-05-10T05:43:28;2.10;;;1.30;;
47589;SDS011;33316;52.298;9.056;2023-05-10T05:45:55;1.80;;;1.45;;
47589;SDS011;33316;52.298;9.056;2023-05-10T05:48:23;2.45;;;1.50;;
47589;SDS011;33316;52.298;9.056;2023-05-10T05:50:50;1.27;;;1.00;;
47589;SDS011;33316;52.298;9.056;2023-05-10T05:53:20;1.58;;;0.75;;
47589;SDS011;33316;52.298;9.056;2023-05-10T05:55:52;0.70;;;0.60;;
47589;SDS011;33316;52.298;9.056;2023-05-10T05:58:20;0.60;;;0.55;;
47589;SDS011;33316;52.298;9.056;2023-05-10T06:00:46;1.10;;;0.90;;
47589;SDS011;33316;52.298;9.056;2023-05-10T06:03:14;1.27;;;0.90;;
47589;SDS011;33316;52.298;9.056;2023-05-10T06:05:41;1.70;;;1.10;;
47589;SDS011;33316;52.298;9.056;2023-05-10T06:08:08;1.40;;;1.00;;
47589;SDS011;33316;52.298;9.056;2023-05-10T06:10:34;1.15;;;1.00;;
47589;SDS011;33316;52.298;9.056;2023-05-10T06:13:03;1.52;;;1.23;;
47589;SDS011;33316;52.298;9.056;2023-05-10T06:15:30;1.23;;;0.90;;
47589;SDS011;33316;52.298;9.056;2023-05-10T06:17:57;1.23;;;0.82;;
47589;SDS011;33316;52.298;9.056;2023-05-10T06:20:25;0.80;;;0.80;;
47589;SDS011;33316;52.298;9.056;2023-05-10T06:22:52;1.30;;;1.20;;
47589;SDS011;33316;52.298;9.056;2023-05-10T06:25:18;2.22;;;1.40;;
47589;SDS011;33316;52.298;9.056;2023-05-10T06:27:45;2.55;;;2.28;;
47589;SDS011;33316;52.298;9.056;2023-05-10T06:30:12;2.03;;;1.65;;
47589;SDS011;33316;52.298;9.056;2023-05-10T06:32:40;1.80;;;1.42;;
47589;SDS011;33316;52.298;9.056;2023-05-10T06:35:08;1.50;;;1.40;;
47589;SDS011;33316;52.298;9.056;2023-05-10T06:37:37;1.67;;;1.58;;
47589;SDS011;33316;52.298;9.056;2023-05-10T06:40:04;2.88;;;1.48;;
47589;SDS011;33316;52.298;9.056;2023-05-10T06:42:31;1.80;;;1.40;;
47589;SDS011;33316;52.298;9.056;2023-05-10T06:44:58;1.70;;;1.52;;
47589;SDS011;33316;52.298;9.056;2023-05-10T06:47:25;1.98;;;1.77;;
47589;SDS011;33316;52.298;9.056;2023-05-10T06:49:52;2.10;;;1.58;;
47589;SDS011;33316;52.298;9.056;2023-05-10T06:52:18;1.67;;;1.23;;
47589;SDS011;33316;52.298;9.056;2023-05-10T06:54:46;1.30;;;0.85;;
47589;SDS011;33316;52.298;9.056;2023-05-10T06:57:16;2.40;;;1.00;;
47589;SDS011;33316;52.298;9.056;2023-05-10T06:59:43;0.90;;;0.70;;
47589;SDS011;33316;52.298;9.056;2023-05-10T07:02:10;0.60;;;0.60;;
47589;SDS011;33316;52.298;9.056;2023-05-10T07:04:37;0.70;;;0.65;;
47589;SDS011;33316;52.298;9.056;2023-05-10T07:07:03;0.88;;;0.70;;
47589;SDS011;33316;52.298;9.056;2023-05-10T07:09:30;2.08;;;1.40;;
47589;SDS011;33316;52.298;9.056;2023-05-10T07:11:58;1.17;;;0.90;;
47589;SDS011;33316;52.298;9.056;2023-05-10T07:14:26;1.73;;;1.20;;
47589;SDS011;33316;52.298;9.056;2023-05-10T07:16:53;1.17;;;0.95;;
47589;SDS011;33316;52.298;9.056;2023-05-10T07:19:28;1.83;;;0.93;;
47589;SDS011;33316;52.298;9.056;2023-05-10T07:21:58;1.55;;;1.00;;
47589;SDS011;33316;52.298;9.056;2023-05-10T07:24:25;1.60;;;0.98;;
47589;SDS011;33316;52.298;9.056;2023-05-10T07:26:52;1.75;;;0.85;;
47589;SDS011;33316;52.298;9.056;2023-05-10T07:29:20;1.20;;;0.85;;
47589;SDS011;33316;52.298;9.056;2023-05-10T07:31:46;1.85;;;0.75;;
47589;SDS011;33316;52.298;9.056;2023-05-10T07:34:13;1.33;;;0.80;;
47589;SDS011;33316;52.298;9.056;2023-05-10T07:36:43;0.65;;;0.50;;
47589;SDS011;33316;52.298;9.056;2023-05-10T07:39:09;2.35;;;0.90;;
47589;SDS011;33316;52.298;9.056;2023-05-10T07:41:36;1.20;;;0.70;;
47589;SDS011;33316;52.298;9.056;2023-05-10T07:44:03;0.52;;;0.40;;
47589;SDS011;33316;52.298;9.056;2023-05-10T07:46:32;0.80;;;0.55;;
47589;SDS011;33316;52.298;9.056;2023-05-10T07:48:58;0.80;;;0.47;;
47589;SDS011;33316;52.298;9.056;2023-05-10T07:51:25;2.03;;;0.50;;
47589;SDS011;33316;52.298;9.056;2023-05-10T07:53:52;0.50;;;0.40;;
47589;SDS011;33316;52.298;9.056;2023-05-10T07:56:20;0.88;;;0.35;;
47589;SDS011;33316;52.298;9.056;2023-05-10T07:58:48;2.10;;;0.90;;
47589;SDS011;33316;52.298;9.056;2023-05-10T08:01:20;1.17;;;0.63;;
47589;SDS011;33316;52.298;9.056;2023-05-10T08:03:49;1.40;;;0.70;;
47589;SDS011;33316;52.298;9.056;2023-05-10T08:06:18;1.38;;;0.50;;
47589;SDS011;33316;52.298;9.056;2023-05-10T08:08:45;0.93;;;0.57;;
47589;SDS011;33316;52.298;9.056;2023-05-10T08:11:14;1.15;;;0.57;;
47589;SDS011;33316;52.298;9.056;2023-05-10T08:13:42;0.65;;;0.63;;
47589;SDS011;33316;52.298;9.056;2023-05-10T08:16:08;1.10;;;0.60;;
47589;SDS011;33316;52.298;9.056;2023-05-10T08:18:35;1.05;;;0.60;;
47589;SDS011;33316;52.298;9.056;2023-05-10T08:21:06;1.17;;;0.77;;
47589;SDS011;33316;52.298;9.056;2023-05-10T08:23:36;1.23;;;0.80;;
47589;SDS011;33316;52.298;9.056;2023-05-10T08:26:03;1.40;;;0.80;;
47589;SDS011;33316;52.298;9.056;2023-05-10T08:28:30;1.20;;;0.60;;
47589;SDS011;33316;52.298;9.056;2023-05-10T08:30:56;1.15;;;0.90;;
47589;SDS011;33316;52.298;9.056;2023-05-10T08:33:23;1.50;;;0.90;;
47589;SDS011;33316;52.298;9.056;2023-05-10T08:35:50;1.40;;;1.00;;
47589;SDS011;33316;52.298;9.056;2023-05-10T08:38:18;1.30;;;0.70;;
47589;SDS011;33316;52.298;9.056;2023-05-10T08:40:45;1.55;;;0.90;;
47589;SDS011;33316;52.298;9.056;2023-05-10T08:43:15;1.97;;;1.10;;
47589;SDS011;33316;52.298;9.056;2023-05-10T08:45:43;1.00;;;0.88;;
47589;SDS011;33316;52.298;9.056;2023-05-10T08:48:11;1.20;;;0.73;;
47589;SDS011;33316;52.298;9.056;2023-05-10T08:50:41;1.55;;;0.80;;
47589;SDS011;33316;52.298;9.056;2023-05-10T08:53:11;1.70;;;1.00;;
47589;SDS011;33316;52.298;9.056;2023-05-10T08:55:40;2.10;;;1.00;;
47589;SDS011;33316;52.298;9.056;2023-05-10T08:58:08;1.17;;;0.88;;
47589;SDS011;33316;52.298;9.056;2023-05-10T09:00:35;1.33;;;0.90;;
47589;SDS011;33316;52.298;9.056;2023-05-10T09:03:03;1.00;;;0.80;;
47589;SDS011;33316;52.298;9.056;2023-05-10T09:05:31;2.55;;;1.00;;
47589;SDS011;33316;52.298;9.056;2023-05-10T09:07:58;2.42;;;1.10;;
47589;SDS011;33316;52.298;9.056;2023-05-10T09:10:25;2.20;;;1.25;;
47589;SDS011;33316;52.298;9.056;2023-05-10T09:12:54;1.08;;;0.93;;
47589;SDS011;33316;52.298;9.056;2023-05-10T09:15:22;2.42;;;1.80;;
47589;SDS011;33316;52.298;9.056;2023-05-10T09:17:49;2.42;;;1.70;;
47589;SDS011;33316;52.298;9.056;2023-05-10T09:20:16;2.40;;;1.88;;
47589;SDS011;33316;52.298;9.056;2023-05-10T09:22:43;3.65;;;1.92;;
47589;SDS011;33316;52.298;9.056;2023-05-10T09:25:10;2.72;;;1.42;;
47589;SDS011;33316;52.298;9.056;2023-05-10T09:27:39;1.92;;;1.20;;
47589;SDS011;33316;52.298;9.056;2023-05-10T09:30:09;1.88;;;1.35;;
47589;SDS011;33316;52.298;9.056;2023-05-10T09:32:37;2.30;;;1.38;;
47589;SDS011;33316;52.298;9.056;2023-05-10T09:35:08;1.98;;;1.65;;
47589;SDS011;33316;52.298;9.056;2023-05-10T09:37:35;3.97;;;1.92;;
47589;SDS011;33316;52.298;9.056;2023-05-10T09:40:04;3.00;;;1.73;;
47589;SDS011;33316;52.298;9.056;2023-05-10T09:42:34;3.15;;;1.98;;
47589;SDS011;33316;52.298;9.056;2023-05-10T09:45:02;5.60;;;1.95;;
47589;SDS011;33316;52.298;9.056;2023-05-10T09:47:32;3.75;;;2.40;;
47589;SDS011;33316;52.298;9.056;2023-05-10T09:50:02;3.80;;;2.13;;
47589;SDS011;33316;52.298;9.056;2023-05-10T09:52:29;4.10;;;2.40;;
47589;SDS011;33316;52.298;9.056;2023-05-10T09:54:57;6.10;;;2.95;;
47589;SDS011;33316;52.298;9.056;2023-05-10T09:57:24;5.15;;;3.08;;
47589;SDS011;33316;52.298;9.056;2023-05-10T09:59:57;4.53;;;2.60;;
47589;SDS011;33316;52.298;9.056;2023-05-10T10:02:29;4.35;;;2.60;;
47589;SDS011;33316;52.298;9.056;2023-05-10T10:05:01;5.97;;;2.63;;
47589;SDS011;33316;52.298;9.056;2023-05-10T10:07:29;7.07;;;2.85;;
47589;SDS011;33316;52.298;9.056;2023-05-10T10:09:58;4.97;;;3.25;;
47589;SDS011;33316;52.298;9.056;2023-05-10T10:12:25;5.38;;;3.25;;
47589;SDS011;33316;52.298;9.056;2023-05-10T10:14:52;5.47;;;3.03;;
47589;SDS011;33316;52.298;9.056;2023-05-10T10:17:20;3.83;;;2.80;;
47589;SDS011;33316;52.298;9.056;2023-05-10T10:19:49;3.05;;;2.17;;
47589;SDS011;33316;52.298;9.056;2023-05-10T10:22:18;4.85;;;3.22;;
47589;SDS011;33316;52.298;9.056;2023-05-10T10:24:44;4.57;;;2.70;;
47589;SDS011;33316;52.298;9.056;2023-05-10T10:27:15;3.38;;;2.80;;
47589;SDS011;33316;52.298;9.056;2023-05-10T10:29:51;5.65;;;3.28;;
47589;SDS011;33316;52.298;9.056;2023-05-10T10:32:38;5.15;;;3.15;;
47589;SDS011;33316;52.298;9.056;2023-05-10T10:35:20;4.03;;;2.60;;
47589;SDS011;33316;52.298;9.056;2023-05-10T10:37:50;5.15;;;3.03;;
47589;SDS011;33316;52.298;9.056;2023-05-10T10:40:25;3.65;;;2.55;;
47589;SDS011;33316;52.298;9.056;2023-05-10T10:42:53;5.63;;;3.40;;
47589;SDS011;33316;52.298;9.056;2023-05-10T10:45:27;6.47;;;3.67;;
47589;SDS011;33316;52.298;9.056;2023-05-10T10:51:01;4.93;;;3.53;;
47589;SDS011;33316;52.298;9.056;2023-05-10T10:53:31;5.60;;;3.92;;
47589;SDS011;33316;52.298;9.056;2023-05-10T10:56:05;3.90;;;2.90;;
47589;SDS011;33316;52.298;9.056;2023-05-10T10:58:38;5.07;;;3.28;;
47589;SDS011;33316;52.298;9.056;2023-05-10T11:01:10;5.20;;;3.17;;
47589;SDS011;33316;52.298;9.056;2023-05-10T11:03:40;8.18;;;3.72;;
47589;SDS011;33316;52.298;9.056;2023-05-10T11:06:29;5.28;;;3.42;;
47589;SDS011;33316;52.298;9.056;2023-05-10T11:09:07;4.93;;;3.30;;
47589;SDS011;33316;52.298;9.056;2023-05-10T11:11:48;5.38;;;3.40;;
47589;SDS011;33316;52.298;9.056;2023-05-10T11:14:19;4.47;;;3.08;;
47589;SDS011;33316;52.298;9.056;2023-05-10T11:16:57;4.72;;;3.53;;
47589;SDS011;33316;52.298;9.056;2023-05-10T11:19:27;5.70;;;3.47;;
47589;SDS011;33316;52.298;9.056;2023-05-10T11:24:55;6.60;;;3.60;;
47589;SDS011;33316;52.298;9.056;2023-05-10T11:27:23;7.10;;;3.97;;
47589;SDS011;33316;52.298;9.056;2023-05-10T11:29:53;4.10;;;2.90;;
47589;SDS011;33316;52.298;9.056;2023-05-10T11:32:19;4.65;;;3.25;;
47589;SDS011;33316;52.298;9.056;2023-05-10T11:34:49;5.07;;;3.45;;
47589;SDS011;33316;52.298;9.056;2023-05-10T11:37:17;4.40;;;3.25;;
47589;SDS011;33316;52.298;9.056;2023-05-10T11:39:45;4.10;;;3.22;;
47589;SDS011;33316;52.298;9.056;2023-05-10T11:42:13;4.10;;;2.97;;
47589;SDS011;33316;52.298;9.056;2023-05-10T11:44:39;6.10;;;3.17;;
47589;SDS011;33316;52.298;9.056;2023-05-10T11:47:08;4.28;;;2.65;;
47589;SDS011;33316;52.298;9.056;2023-05-10T11:49:35;5.82;;;3.38;;
47589;SDS011;33316;52.298;9.056;2023-05-10T11:52:05;3.85;;;2.78;;
47589;SDS011;33316;52.298;9.056;2023-05-10T11:54:42;5.40;;;2.95;;
47589;SDS011;33316;52.298;9.056;2023-05-10T11:57:12;4.55;;;2.95;;
47589;SDS011;33316;52.298;9.056;2023-05-10T11:59:39;5.40;;;3.60;;
47589;SDS011;33316;52.298;9.056;2023-05-10T12:02:06;5.43;;;3.83;;
47589;SDS011;33316;52.298;9.056;2023-05-10T12:04:33;4.85;;;3.13;;
47589;SDS011;33316;52.298;9.056;2023-05-10T12:07:04;5.05;;;3.25;;
47589;SDS011;33316;52.298;9.056;2023-05-10T12:09:34;4.93;;;2.78;;
47589;SDS011;33316;52.298;9.056;2023-05-10T12:12:02;3.42;;;2.30;;
47589;SDS011;33316;52.298;9.056;2023-05-10T12:14:28;3.60;;;2.50;;
47589;SDS011;33316;52.298;9.056;2023-05-10T12:17:00;4.50;;;2.67;;
47589;SDS011;33316;52.298;9.056;2023-05-10T12:19:26;4.15;;;2.75;;
47589;SDS011;33316;52.298;9.056;2023-05-10T12:21:53;5.22;;;2.88;;
47589;SDS011;33316;52.298;9.056;2023-05-10T12:24:20;4.10;;;2.40;;
47589;SDS011;33316;52.298;9.056;2023-05-10T12:26:46;3.00;;;2.10;;
47589;SDS011;33316;52.298;9.056;2023-05-10T12:29:16;3.80;;;2.33;;
47589;SDS011;33316;52.298;9.056;2023-05-10T12:31:53;2.95;;;2.05;;
47589;SDS011;33316;52.298;9.056;2023-05-10T12:34:29;3.40;;;2.33;;
47589;SDS011;33316;52.298;9.056;2023-05-10T12:37:03;2.42;;;1.98;;
47589;SDS011;33316;52.298;9.056;2023-05-10T12:39:40;4.45;;;2.65;;
47589;SDS011;33316;52.298;9.056;2023-05-10T12:42:09;5.13;;;2.50;;
47589;SDS011;33316;52.298;9.056;2023-05-10T12:44:38;3.55;;;2.38;;
47589;SDS011;33316;52.298;9.056;2023-05-10T12:47:04;5.03;;;3.20;;
47589;SDS011;33316;52.298;9.056;2023-05-10T12:49:31;6.70;;;3.22;;
47589;SDS011;33316;52.298;9.056;2023-05-10T12:51:58;5.53;;;2.92;;
47589;SDS011;33316;52.298;9.056;2023-05-10T12:54:28;8.32;;;3.10;;
47589;SDS011;33316;52.298;9.056;2023-05-10T12:56:55;4.47;;;2.30;;
47589;SDS011;33316;52.298;9.056;2023-05-10T12:59:23;4.03;;;2.10;;
47589;SDS011;33316;52.298;9.056;2023-05-10T13:01:54;3.88;;;2.50;;
47589;SDS011;33316;52.298;9.056;2023-05-10T13:04:25;4.60;;;3.67;;
47589;SDS011;33316;52.298;9.056;2023-05-10T13:06:52;6.85;;;3.55;;
47589;SDS011;33316;52.298;9.056;2023-05-10T13:09:21;4.15;;;2.63;;
47589;SDS011;33316;52.298;9.056;2023-05-10T13:11:47;4.75;;;3.17;;
47589;SDS011;33316;52.298;9.056;2023-05-10T13:14:15;3.53;;;2.67;;
47589;SDS011;33316;52.298;9.056;2023-05-10T13:16:42;4.18;;;2.92;;
47589;SDS011;33316;52.298;9.056;2023-05-10T13:19:10;4.38;;;2.78;;
47589;SDS011;33316;52.298;9.056;2023-05-10T13:21:36;3.70;;;2.70;;
47589;SDS011;33316;52.298;9.056;2023-05-10T13:24:03;5.22;;;3.40;;
47589;SDS011;33316;52.298;9.056;2023-05-10T13:26:30;4.35;;;3.55;;
47589;SDS011;33316;52.298;9.056;2023-05-10T13:28:57;4.50;;;3.38;;
47589;SDS011;33316;52.298;9.056;2023-05-10T13:31:24;4.63;;;3.20;;
47589;SDS011;33316;52.298;9.056;2023-05-10T13:33:50;4.45;;;3.15;;
47589;SDS011;33316;52.298;9.056;2023-05-10T13:36:18;6.18;;;3.50;;
47589;SDS011;33316;52.298;9.056;2023-05-10T13:38:45;7.70;;;4.18;;
47589;SDS011;33316;52.298;9.056;2023-05-10T13:41:12;5.00;;;3.70;;
47589;SDS011;33316;52.298;9.056;2023-05-10T13:43:39;6.10;;;4.32;;
47589;SDS011;33316;52.298;9.056;2023-05-10T13:46:05;6.63;;;4.43;;
47589;SDS011;33316;52.298;9.056;2023-05-10T13:48:32;8.40;;;4.93;;
47589;SDS011;33316;52.298;9.056;2023-05-10T13:50:59;9.00;;;5.85;;
47589;SDS011;33316;52.298;9.056;2023-05-10T13:53:27;8.63;;;5.30;;
47589;SDS011;33316;52.298;9.056;2023-05-10T13:55:53;9.05;;;5.70;;
47589;SDS011;33316;52.298;9.056;2023-05-10T13:58:20;7.78;;;4.90;;
47589;SDS011;33316;52.298;9.056;2023-05-10T14:00:47;6.47;;;4.78;;
47589;SDS011;33316;52.298;9.056;2023-05-10T14:03:13;8.73;;;6.18;;
47589;SDS011;33316;52.298;9.056;2023-05-10T14:05:40;9.95;;;6.28;;
47589;SDS011;33316;52.298;9.056;2023-05-10T14:08:07;13.63;;;7.43;;
47589;SDS011;33316;52.298;9.056;2023-05-10T14:10:36;8.77;;;6.22;;
47589;SDS011;33316;52.298;9.056;2023-05-10T14:13:03;11.23;;;7.25;;
47589;SDS011;33316;52.298;9.056;2023-05-10T14:15:29;11.52;;;7.22;;
47589;SDS011;33316;52.298;9.056;2023-05-10T14:17:56;11.15;;;7.45;;
47589;SDS011;33316;52.298;9.056;2023-05-10T14:20:22;12.15;;;7.63;;
47589;SDS011;33316;52.298;9.056;2023-05-10T14:22:49;10.30;;;6.88;;
47589;SDS011;33316;52.298;9.056;2023-05-10T14:25:16;10.90;;;6.38;;
47589;SDS011;33316;52.298;9.056;2023-05-10T14:27:44;10.50;;;6.63;;
47589;SDS011;33316;52.298;9.056;2023-05-10T14:30:12;8.50;;;5.95;;
47589;SDS011;33316;52.298;9.056;2023-05-10T14:32:40;10.07;;;6.28;;
47589;SDS011;33316;52.298;9.056;2023-05-10T14:35:06;9.38;;;5.78;;
47589;SDS011;33316;52.298;9.056;2023-05-10T14:37:33;8.90;;;5.70;;
47589;SDS011;33316;52.298;9.056;2023-05-10T14:40:00;8.48;;;5.20;;
47589;SDS011;33316;52.298;9.056;2023-05-10T14:42:29;6.88;;;4.25;;
47589;SDS011;33316;52.298;9.056;2023-05-10T14:44:57;6.20;;;4.07;;
47589;SDS011;33316;52.298;9.056;2023-05-10T14:47:24;9.52;;;5.00;;
47589;SDS011;33316;52.298;9.056;2023-05-10T14:49:50;6.68;;;4.18;;
47589;SDS011;33316;52.298;9.056;2023-05-10T14:52:17;7.65;;;4.63;;
47589;SDS011;33316;52.298;9.056;2023-05-10T14:54:44;6.53;;;3.88;;
47589;SDS011;33316;52.298;9.056;2023-05-10T14:57:11;5.35;;;3.65;;
47589;SDS011;33316;52.298;9.056;2023-05-10T14:59:37;4.57;;;3.28;;
47589;SDS011;33316;52.298;9.056;2023-05-10T15:02:05;6.63;;;3.47;;
47589;SDS011;33316;52.298;9.056;2023-05-10T15:04:35;4.32;;;2.85;;
47589;SDS011;33316;52.298;9.056;2023-05-10T15:07:12;5.13;;;2.80;;
47589;SDS011;33316;52.298;9.056;2023-05-10T15:09:41;3.72;;;2.20;;